createdAt,value
2023-05-13T00:00:47.252Z,1000.00
2023-05-13T00:01:48.219Z,1000.00
2023-05-13T00:02:47.349Z,1000.00
2023-05-13T00:03:47.574Z,1000.00
2023-05-13T00:04:47.389Z,1000.00
2023-05-13T00:05:47.478Z,1000.00
2023-05-13T00:06:47.471Z,1000.00
2023-05-13T00:07:47.503Z,1000.00
2023-05-13T00:08:47.513Z,1000.00
2023-05-13T00:09:47.569Z,1000.00
2023-05-13T00:10:47.557Z,1000.00
2023-05-13T00:11:47.607Z,1000.00
2023-05-13T00:12:47.611Z,1000.00
2023-05-13T00:13:47.613Z,1000.00
2023-05-13T00:14:47.654Z,1000.00
2023-05-13T00:15:47.654Z,1000.00
2023-05-13T00:16:47.720Z,1000.00
2023-05-13T00:17:47.853Z,1000.00
2023-05-13T00:18:47.881Z,1000.00
2023-05-13T00:19:47.834Z,1000.00
2023-05-13T00:20:47.888Z,1000.00
2023-05-13T00:21:47.927Z,1000.00
2023-05-13T00:22:47.964Z,1000.00
2023-05-13T00:23:47.965Z,1000.00
2023-05-13T00:24:48.077Z,1000.00
2023-05-13T00:25:48.072Z,1000.00
2023-05-13T00:26:48.141Z,1000.00
2023-05-13T00:27:48.189Z,1000.00
2023-05-13T00:28:48.169Z,1000.00
2023-05-13T00:29:48.218Z,1000.00
2023-05-13T00:30:48.300Z,1000.00
2023-05-13T00:31:48.335Z,1000.00
2023-05-13T00:32:48.342Z,1000.00
2023-05-13T00:33:48.343Z,1000.00
2023-05-13T00:34:48.384Z,1000.00
2023-05-13T00:35:48.445Z,1000.00
2023-05-13T00:36:48.499Z,1000.00
2023-05-13T00:37:48.556Z,1000.00
2023-05-13T00:38:48.572Z,1000.00
2023-05-13T00:39:48.586Z,1000.00
2023-05-13T00:40:48.571Z,1000.00
2023-05-13T00:41:48.595Z,1000.00
2023-05-13T00:42:48.650Z,1000.00
2023-05-13T00:43:48.710Z,1000.00
2023-05-13T00:44:48.714Z,1000.00
2023-05-13T00:45:48.823Z,1000.00
2023-05-13T00:46:48.832Z,1000.00
2023-05-13T00:47:48.878Z,1000.00
2023-05-13T00:48:48.883Z,1000.00
2023-05-13T00:49:48.923Z,1000.00
2023-05-13T00:50:49.022Z,1000.00
2023-05-13T00:51:49.044Z,1000.00
2023-05-13T00:52:49.065Z,1000.00
2023-05-13T00:53:49.100Z,1000.00
2023-05-13T00:54:49.121Z,1000.00
2023-05-13T00:55:49.197Z,1000.00
2023-05-13T00:56:49.201Z,1000.00
2023-05-13T00:57:49.199Z,1000.00
2023-05-13T00:58:49.211Z,1000.00
2023-05-13T00:59:49.210Z,1000.00
2023-05-13T01:00:49.313Z,1000.00
2023-05-13T01:01:49.329Z,1000.00
2023-05-13T01:02:49.483Z,1000.00
2023-05-13T01:03:49.386Z,1000.00
2023-05-13T01:04:49.391Z,1000.00
2023-05-13T01:05:49.433Z,1000.00
2023-05-13T01:06:49.458Z,1000.00
2023-05-13T01:07:49.433Z,1000.00
2023-05-13T01:08:49.525Z,1000.00
2023-05-13T01:09:49.542Z,1000.00
2023-05-13T01:10:49.552Z,1000.00
2023-05-13T01:11:49.654Z,1000.00
2023-05-13T01:12:49.639Z,1000.00
2023-05-13T01:13:49.703Z,1000.00
2023-05-13T01:14:49.696Z,1000.00
2023-05-13T01:15:49.734Z,1000.00
2023-05-13T01:16:49.779Z,1000.00
2023-05-13T01:17:49.806Z,1000.00
2023-05-13T01:18:49.829Z,1000.00
2023-05-13T01:19:49.759Z,1000.00
2023-05-13T01:20:49.754Z,1000.00
2023-05-13T01:21:49.822Z,1000.00
2023-05-13T01:22:49.801Z,1000.00
2023-05-13T01:23:49.822Z,1000.00
2023-05-13T01:24:49.867Z,1000.00
2023-05-13T01:25:49.838Z,1000.00
2023-05-13T01:26:49.891Z,1000.00
2023-05-13T01:27:49.925Z,1000.00
2023-05-13T01:28:49.998Z,1000.00
2023-05-13T01:29:50.060Z,1000.00
2023-05-13T01:30:50.087Z,1000.00
2023-05-13T01:31:50.088Z,1000.00
2023-05-13T01:32:50.200Z,1000.00
2023-05-13T01:33:50.182Z,1000.00
2023-05-13T01:34:50.206Z,1000.00
2023-05-13T01:35:50.273Z,1000.00
2023-05-13T01:36:50.311Z,1000.00
2023-05-13T01:37:50.314Z,1000.00
2023-05-13T01:38:50.342Z,1000.00
2023-05-13T01:39:50.444Z,1000.00
2023-05-13T01:40:50.441Z,1000.00
2023-05-13T01:41:50.462Z,1000.00
2023-05-13T01:42:50.532Z,1000.00
2023-05-13T01:43:50.578Z,1000.00
2023-05-13T01:44:50.588Z,1000.00
2023-05-13T01:45:50.636Z,1000.00
2023-05-13T01:46:50.785Z,1000.00
2023-05-13T01:47:50.796Z,1000.00
2023-05-13T01:48:50.718Z,1000.00
2023-05-13T01:49:50.814Z,1000.00
2023-05-13T01:50:50.795Z,1000.00
2023-05-13T01:51:50.866Z,1000.00
2023-05-13T01:52:50.911Z,1000.00
2023-05-13T01:53:50.871Z,1000.00
2023-05-13T01:54:50.938Z,1000.00
2023-05-13T01:55:50.971Z,1000.00
2023-05-13T01:56:50.984Z,1000.00
2023-05-13T01:57:51.019Z,1000.00
2023-05-13T01:58:51.057Z,1000.00
2023-05-13T01:59:51.140Z,1000.00
2023-05-13T02:00:51.167Z,1000.00
2023-05-13T02:01:51.167Z,1000.00
2023-05-13T02:02:51.269Z,1000.00
2023-05-13T02:03:51.226Z,1000.00
2023-05-13T02:04:51.189Z,1000.00
2023-05-13T02:05:51.230Z,1000.00
2023-05-13T02:06:51.250Z,1000.00
2023-05-13T02:07:51.286Z,1000.00
2023-05-13T02:08:51.279Z,1000.00
2023-05-13T02:09:51.312Z,1000.00
2023-05-13T02:10:51.363Z,1000.00
2023-05-13T02:11:51.410Z,1000.00
2023-05-13T02:12:51.482Z,1000.00
2023-05-13T02:13:51.545Z,1000.00
2023-05-13T02:14:51.518Z,1000.00
2023-05-13T02:15:51.616Z,1000.00
2023-05-13T02:16:51.647Z,1000.00
2023-05-13T02:17:51.745Z,1000.00
2023-05-13T02:18:51.699Z,1000.00
2023-05-13T02:19:51.733Z,1000.00
2023-05-13T02:20:51.822Z,1000.00
2023-05-13T02:21:51.777Z,1000.00
2023-05-13T02:22:51.810Z,1000.00
2023-05-13T02:23:51.831Z,1000.00
2023-05-13T02:24:51.874Z,1000.00
2023-05-13T02:25:51.963Z,1000.00
2023-05-13T02:26:51.937Z,1000.00
2023-05-13T02:27:51.940Z,1000.00
2023-05-13T02:28:52.003Z,1000.00
2023-05-13T02:29:52.011Z,1000.00
2023-05-13T02:30:52.033Z,1000.00
2023-05-13T02:31:52.088Z,1000.00
2023-05-13T02:32:52.150Z,1000.00
2023-05-13T02:33:52.151Z,1000.00
2023-05-13T02:34:52.229Z,1000.00
2023-05-13T02:35:52.237Z,1000.00
2023-05-13T02:36:52.304Z,1000.00
2023-05-13T02:37:52.321Z,1000.00
2023-05-13T02:38:52.374Z,1000.00
2023-05-13T02:39:52.391Z,1000.00
2023-05-13T02:40:52.420Z,1000.00
2023-05-13T02:41:52.470Z,1000.00
2023-05-13T02:42:52.477Z,1000.00
2023-05-13T02:43:52.550Z,1000.00
2023-05-13T02:44:52.589Z,1000.00
2023-05-13T02:45:52.637Z,1000.00
2023-05-13T02:46:52.638Z,1000.00
2023-05-13T02:47:52.765Z,1000.00
2023-05-13T02:48:52.724Z,1000.00
2023-05-13T02:49:52.730Z,1000.00
2023-05-13T02:50:52.753Z,1000.00
2023-05-13T02:51:52.824Z,1000.00
2023-05-13T02:52:52.823Z,1000.00
2023-05-13T02:53:52.865Z,1000.00
2023-05-13T02:54:52.937Z,1000.00
2023-05-13T02:55:52.903Z,1000.00
2023-05-13T02:56:52.917Z,1000.00
2023-05-13T02:57:52.946Z,1000.00
2023-05-13T02:58:52.992Z,1000.00
2023-05-13T02:59:53.848Z,1000.00
2023-05-13T03:00:53.123Z,1000.00
2023-05-13T03:01:53.140Z,1000.00
2023-05-13T03:02:53.235Z,1000.00
2023-05-13T03:03:53.167Z,1000.00
2023-05-13T03:04:53.240Z,1000.00
2023-05-13T03:05:53.258Z,1000.00
2023-05-13T03:06:53.290Z,1000.00
2023-05-13T03:07:53.313Z,1000.00
2023-05-13T03:08:53.293Z,1000.00
2023-05-13T03:09:53.333Z,1000.00
2023-05-13T03:10:53.346Z,1000.00
2023-05-13T03:11:53.361Z,1000.00
2023-05-13T03:12:53.399Z,1000.00
2023-05-13T03:13:53.411Z,1000.00
2023-05-13T03:14:53.434Z,1000.00
2023-05-13T03:15:53.537Z,1000.00
2023-05-13T03:16:53.521Z,1000.00
2023-05-13T03:17:53.638Z,1000.00
2023-05-13T03:18:53.636Z,1000.00
2023-05-13T03:19:53.595Z,1000.00
2023-05-13T03:20:53.608Z,1000.00
2023-05-13T03:21:53.859Z,1000.00
2023-05-13T03:22:53.659Z,1000.00
2023-05-13T03:23:53.671Z,1000.00
2023-05-13T03:24:53.687Z,1000.00
2023-05-13T03:25:53.768Z,1000.00
2023-05-13T03:26:53.702Z,1000.00
2023-05-13T03:27:53.751Z,1000.00
2023-05-13T03:28:53.771Z,1000.00
2023-05-13T03:29:53.837Z,1000.00
2023-05-13T03:30:53.932Z,1000.00
2023-05-13T03:31:53.960Z,1000.00
2023-05-13T03:32:54.006Z,1000.00
2023-05-13T03:33:53.941Z,1000.00
2023-05-13T03:34:54.004Z,1000.00
2023-05-13T03:35:53.952Z,1000.00
2023-05-13T03:36:54.008Z,1000.00
2023-05-13T03:37:54.014Z,1000.00
2023-05-13T03:38:54.129Z,1000.00
2023-05-13T03:39:54.071Z,1000.00
2023-05-13T03:40:54.083Z,1000.00
2023-05-13T03:41:54.088Z,1000.00
2023-05-13T03:42:54.121Z,1000.00
2023-05-13T03:43:54.092Z,1000.00
2023-05-13T03:44:54.138Z,1000.00
2023-05-13T03:45:54.147Z,1000.00
2023-05-13T03:46:54.278Z,1000.00
2023-05-13T03:47:54.216Z,1000.00
2023-05-13T03:48:54.185Z,1000.00
2023-05-13T03:49:54.186Z,1000.00
2023-05-13T03:50:54.193Z,1000.00
2023-05-13T03:51:54.251Z,1000.00
2023-05-13T03:52:54.272Z,1000.00
2023-05-13T03:53:54.275Z,1000.00
2023-05-13T03:54:54.280Z,1000.00
2023-05-13T03:55:54.288Z,1000.00
2023-05-13T03:56:54.338Z,1000.00
2023-05-13T03:57:54.348Z,1000.00
2023-05-13T03:58:54.349Z,1000.00
2023-05-13T03:59:54.409Z,1000.00
2023-05-13T04:00:54.473Z,1000.00
2023-05-13T04:01:54.569Z,1000.00
2023-05-13T04:02:54.606Z,1000.00
2023-05-13T04:03:54.479Z,1000.00
2023-05-13T04:04:54.504Z,1000.00
2023-05-13T04:05:54.539Z,1000.00
2023-05-13T04:06:54.550Z,1000.00
2023-05-13T04:07:54.571Z,1000.00
2023-05-13T04:08:54.595Z,1000.00
2023-05-13T04:09:54.626Z,1000.00
2023-05-13T04:10:54.604Z,1000.00
2023-05-13T04:11:54.643Z,1000.00
2023-05-13T04:12:54.686Z,1000.00
2023-05-13T04:13:54.743Z,1000.00
2023-05-13T04:14:54.757Z,1000.00
2023-05-13T04:15:54.816Z,1000.00
2023-05-13T04:16:54.894Z,1000.00
2023-05-13T04:17:54.862Z,1000.00
2023-05-13T04:18:54.896Z,1000.00
2023-05-13T04:19:54.928Z,1000.00
2023-05-13T04:20:54.955Z,1000.00
2023-05-13T04:21:55.005Z,1000.00
2023-05-13T04:22:55.038Z,1000.00
2023-05-13T04:23:55.076Z,1000.00
2023-05-13T04:24:55.138Z,1000.00
2023-05-13T04:25:55.137Z,1000.00
2023-05-13T04:26:55.161Z,1000.00
2023-05-13T04:27:55.227Z,1000.00
2023-05-13T04:28:55.315Z,1000.00
2023-05-13T04:29:55.323Z,1000.00
2023-05-13T04:30:55.364Z,1000.00
2023-05-13T04:31:55.516Z,1000.00
2023-05-13T04:32:55.437Z,1000.00
2023-05-13T04:33:55.506Z,1000.00
2023-05-13T04:34:55.545Z,1000.00
2023-05-13T04:35:55.569Z,1000.00
2023-05-13T04:36:55.614Z,1000.00
2023-05-13T04:37:55.621Z,1000.00
2023-05-13T04:38:55.678Z,1000.00
2023-05-13T04:39:55.744Z,1000.00
2023-05-13T04:40:55.745Z,1000.00
2023-05-13T04:41:55.798Z,1000.00
2023-05-13T04:42:55.861Z,1000.00
2023-05-13T04:43:55.876Z,1000.00
2023-05-13T04:44:55.864Z,1000.00
2023-05-13T04:45:55.969Z,1000.00
2023-05-13T04:46:55.941Z,1000.00
2023-05-13T04:47:58.340Z,1000.00
2023-05-13T04:48:56.195Z,1000.00
2023-05-13T04:49:56.189Z,1000.00
2023-05-13T04:50:56.260Z,1000.00
2023-05-13T04:51:56.351Z,1000.00
2023-05-13T04:52:56.358Z,1000.00
2023-05-13T04:53:56.365Z,1000.00
2023-05-13T04:54:56.382Z,1000.00
2023-05-13T04:55:56.424Z,1000.00
2023-05-13T04:56:56.450Z,1000.00
2023-05-13T04:57:56.464Z,1000.00
2023-05-13T04:58:56.484Z,1000.00
2023-05-13T04:59:56.518Z,1000.00
2023-05-13T05:00:56.537Z,1000.00
2023-05-13T05:01:56.551Z,1000.00
2023-05-13T05:02:56.605Z,1000.00
2023-05-13T05:03:56.607Z,1000.00
2023-05-13T05:04:56.614Z,1000.00
2023-05-13T05:05:56.655Z,1000.00
2023-05-13T05:06:56.724Z,1000.00
2023-05-13T05:07:56.731Z,1000.00
2023-05-13T05:08:56.778Z,1000.00
2023-05-13T05:09:56.812Z,1000.00
2023-05-13T05:10:56.883Z,1000.00
2023-05-13T05:11:56.898Z,1000.00
2023-05-13T05:12:56.957Z,1000.00
2023-05-13T05:13:56.967Z,1000.00
2023-05-13T05:14:57.012Z,1000.00
2023-05-13T05:15:57.017Z,1000.00
2023-05-13T05:16:57.057Z,1000.00
2023-05-13T05:17:57.263Z,1000.00
2023-05-13T05:18:57.182Z,1000.00
2023-05-13T05:19:57.076Z,1000.00
2023-05-13T05:20:57.151Z,1000.00
2023-05-13T05:21:57.202Z,1000.00
2023-05-13T05:22:57.284Z,1000.00
2023-05-13T05:23:57.339Z,1000.00
2023-05-13T05:24:57.342Z,1000.00
2023-05-13T05:26:07.901Z,1000.00
2023-05-13T05:26:58.383Z,1000.00
2023-05-13T05:27:57.364Z,1000.00
2023-05-13T05:28:57.332Z,1000.00
2023-05-13T05:29:57.383Z,1000.00
2023-05-13T05:30:57.348Z,1000.00
2023-05-13T05:31:57.399Z,1000.00
2023-05-13T05:32:57.371Z,1000.00
2023-05-13T05:33:57.335Z,1000.00
2023-05-13T05:34:57.313Z,1000.00
2023-05-13T05:35:57.335Z,1000.00
2023-05-13T05:36:57.320Z,1000.00
2023-05-13T05:37:57.300Z,1000.00
2023-05-13T05:38:57.310Z,1000.00
2023-05-13T05:39:57.319Z,1000.00
2023-05-13T05:40:57.271Z,1000.00
2023-05-13T05:41:57.306Z,1000.00
2023-05-13T05:42:57.287Z,1000.00
2023-05-13T05:43:57.263Z,1000.00
2023-05-13T05:44:57.261Z,1000.00
2023-05-13T05:45:57.329Z,1000.00
2023-05-13T05:46:57.357Z,1000.00
2023-05-13T05:47:57.578Z,1000.00
2023-05-13T05:48:57.526Z,1000.00
2023-05-13T05:49:57.571Z,1000.00
2023-05-13T05:50:57.540Z,1000.00
2023-05-13T05:51:57.589Z,1000.00
2023-05-13T05:52:57.595Z,1000.00
2023-05-13T05:53:57.670Z,1000.00
2023-05-13T05:54:57.721Z,1000.00
2023-05-13T05:55:57.751Z,1000.00
2023-05-13T05:56:57.811Z,1000.00
2023-05-13T05:57:57.831Z,1000.00
2023-05-13T05:58:57.871Z,1000.00
2023-05-13T05:59:57.832Z,1000.00
2023-05-13T06:00:57.876Z,1000.00
2023-05-13T06:01:57.966Z,1000.00
2023-05-13T06:02:57.987Z,1000.00
2023-05-13T06:03:58.018Z,1000.00
2023-05-13T06:04:57.926Z,1000.00
2023-05-13T06:05:57.972Z,1000.00
2023-05-13T06:06:57.993Z,1000.00
2023-05-13T06:07:57.972Z,1000.00
2023-05-13T06:08:57.982Z,1000.00
2023-05-13T06:09:58.032Z,1000.00
2023-05-13T06:10:58.057Z,1000.00
2023-05-13T06:11:58.069Z,1000.00
2023-05-13T06:12:58.097Z,1000.00
2023-05-13T06:13:58.085Z,1000.00
2023-05-13T06:14:58.217Z,1000.00
2023-05-13T06:15:58.278Z,1000.00
2023-05-13T06:16:58.250Z,1000.00
2023-05-13T06:17:58.326Z,1000.00
2023-05-13T06:18:58.424Z,1000.00
2023-05-13T06:19:58.367Z,1000.00
2023-05-13T06:20:58.409Z,1000.00
2023-05-13T06:21:58.454Z,1000.00
2023-05-13T06:22:58.469Z,1000.00
2023-05-13T06:23:58.533Z,1000.00
2023-05-13T06:24:58.588Z,1000.00
2023-05-13T06:25:58.595Z,1000.00
2023-05-13T06:26:58.563Z,1000.00
2023-05-13T06:28:00.267Z,1000.00
2023-05-13T06:28:58.614Z,1000.00
2023-05-13T06:29:58.564Z,1000.00
2023-05-13T06:30:58.590Z,1000.00
2023-05-13T06:31:58.585Z,1000.00
2023-05-13T06:33:02.089Z,1000.00
2023-05-13T06:33:58.528Z,1000.00
2023-05-13T06:34:58.603Z,1000.00
2023-05-13T06:35:58.550Z,1000.00
2023-05-13T06:36:58.554Z,1000.00
2023-05-13T06:37:58.534Z,1000.00
2023-05-13T06:38:58.540Z,1000.00
2023-05-13T06:39:58.524Z,1000.00
2023-05-13T06:40:58.530Z,1000.00
2023-05-13T06:41:58.497Z,1000.00
2023-05-13T06:42:58.496Z,1000.00
2023-05-13T06:43:58.497Z,1000.00
2023-05-13T06:44:58.497Z,1000.00
2023-05-13T06:45:58.465Z,1000.00
2023-05-13T06:46:58.493Z,1000.00
2023-05-13T06:47:58.490Z,1000.00
2023-05-13T06:48:58.473Z,1000.00
2023-05-13T06:49:58.436Z,1000.00
2023-05-13T06:50:58.438Z,1000.00
2023-05-13T06:51:58.450Z,1000.00
2023-05-13T06:52:58.448Z,1000.00
2023-05-13T06:53:58.418Z,1000.00
2023-05-13T06:54:58.416Z,1000.00
2023-05-13T06:55:58.384Z,1000.00
2023-05-13T06:56:58.377Z,1000.00
2023-05-13T06:57:58.379Z,1000.00
2023-05-13T06:58:58.374Z,1000.00
2023-05-13T06:59:58.415Z,1000.00
2023-05-13T07:00:58.473Z,1000.00
2023-05-13T07:01:58.395Z,1000.00
2023-05-13T07:02:58.379Z,1000.00
2023-05-13T07:03:58.392Z,1000.00
2023-05-13T07:04:58.379Z,1000.00
2023-05-13T07:05:58.357Z,1000.00
2023-05-13T07:06:58.351Z,1000.00
2023-05-13T07:07:58.365Z,1000.00
2023-05-13T07:08:58.355Z,1000.00
2023-05-13T07:09:58.361Z,1000.00
2023-05-13T07:10:58.311Z,1000.00
2023-05-13T07:11:58.316Z,1000.00
2023-05-13T07:12:58.333Z,1000.00
2023-05-13T07:13:58.298Z,1000.00
2023-05-13T07:14:58.297Z,1000.00
2023-05-13T07:15:58.288Z,1000.00
2023-05-13T07:16:58.383Z,1000.00
2023-05-13T07:17:58.345Z,1000.00
2023-05-13T07:18:58.385Z,1000.00
2023-05-13T07:19:58.413Z,1000.00
2023-05-13T07:20:58.436Z,1000.00
2023-05-13T07:21:58.477Z,1000.00
2023-05-13T07:22:58.500Z,1000.00
2023-05-13T07:23:58.574Z,1000.00
2023-05-13T07:24:58.607Z,1000.00
2023-05-13T07:25:58.661Z,1000.00
2023-05-13T07:26:58.670Z,1000.00
2023-05-13T07:27:58.687Z,1000.00
2023-05-13T07:28:58.769Z,1000.00
2023-05-13T07:29:58.791Z,1000.00
2023-05-13T07:30:58.946Z,1000.00
2023-05-13T07:31:58.872Z,1000.00
2023-05-13T07:32:59.010Z,939.63
2023-05-13T07:33:58.967Z,769.81
2023-05-13T07:34:59.105Z,814.26
2023-05-13T07:35:59.012Z,602.37
2023-05-13T07:36:59.053Z,523.14
2023-05-13T07:37:59.096Z,431.57
2023-05-13T07:38:59.514Z,565.02
2023-05-13T07:39:59.150Z,716.55
2023-05-13T07:40:59.225Z,758.11
2023-05-13T07:41:59.228Z,350.00
2023-05-13T07:42:59.281Z,276.92
2023-05-13T07:43:59.351Z,292.01
2023-05-13T07:44:59.380Z,244.96
2023-05-13T07:45:59.418Z,260.91
2023-05-13T07:46:59.486Z,261.78
2023-05-13T07:47:59.497Z,224.38
2023-05-13T07:48:59.522Z,207.70
2023-05-13T07:49:59.527Z,362.19
2023-05-13T07:50:59.599Z,286.10
2023-05-13T07:51:59.592Z,193.21
2023-05-13T07:52:59.654Z,125.03
2023-05-13T07:53:59.649Z,147.02
2023-05-13T07:54:59.725Z,148.54
2023-05-13T07:55:59.749Z,123.18
2023-05-13T07:56:59.834Z,152.07
2023-05-13T07:57:59.851Z,240.34
2023-05-13T07:58:59.884Z,182.99
2023-05-13T07:59:59.902Z,158.53
2023-05-13T08:00:59.918Z,149.05
2023-05-13T08:01:59.959Z,152.18
2023-05-13T08:03:00.049Z,136.66
2023-05-13T08:04:00.273Z,118.64
2023-05-13T08:05:00.176Z,94.64
2023-05-13T08:06:00.121Z,72.88
2023-05-13T08:07:00.146Z,59.42
2023-05-13T08:08:00.150Z,27.96
2023-05-13T08:09:00.253Z,16.33
2023-05-13T08:10:00.221Z,10.42
2023-05-13T08:11:00.285Z,8.67
2023-05-13T08:12:00.324Z,7.43
2023-05-13T08:13:00.287Z,8.00
2023-05-13T08:14:00.339Z,9.55
2023-05-13T08:15:00.381Z,12.46
2023-05-13T08:16:00.482Z,9.65
2023-05-13T08:17:00.433Z,7.73
2023-05-13T08:18:00.475Z,6.66
2023-05-13T08:19:01.462Z,6.86
2023-05-13T08:20:00.533Z,8.70
2023-05-13T08:21:00.584Z,11.57
2023-05-13T08:22:00.590Z,10.79
2023-05-13T08:23:00.615Z,9.65
2023-05-13T08:24:00.620Z,8.13
2023-05-13T08:25:00.669Z,6.58
2023-05-13T08:26:00.661Z,6.29
2023-05-13T08:27:00.710Z,6.66
2023-05-13T08:28:00.751Z,7.06
2023-05-13T08:29:00.754Z,9.15
2023-05-13T08:30:00.789Z,6.13
2023-05-13T08:31:00.812Z,4.85
2023-05-13T08:32:00.891Z,5.80
2023-05-13T08:33:00.931Z,8.31
2023-05-13T08:34:00.929Z,9.76
2023-05-13T08:35:00.935Z,12.65
2023-05-13T08:36:00.955Z,12.51
2023-05-13T08:37:01.006Z,16.35
2023-05-13T08:38:01.016Z,21.21
2023-05-13T08:39:01.042Z,38.37
2023-05-13T08:40:01.098Z,63.62
2023-05-13T08:41:01.138Z,79.11
2023-05-13T08:42:01.149Z,97.78
2023-05-13T08:43:01.219Z,98.67
2023-05-13T08:44:01.308Z,123.73
2023-05-13T08:45:01.310Z,113.87
2023-05-13T08:46:01.359Z,97.57
2023-05-13T08:47:01.322Z,76.00
2023-05-13T08:48:01.424Z,52.46
2023-05-13T08:49:01.388Z,45.28
2023-05-13T08:50:01.459Z,44.76
2023-05-13T08:51:01.451Z,48.46
2023-05-13T08:52:01.473Z,47.68
2023-05-13T08:53:01.475Z,47.44
2023-05-13T08:54:01.535Z,46.22
2023-05-13T08:55:01.535Z,53.54
2023-05-13T08:56:01.585Z,65.78
2023-05-13T08:57:01.633Z,57.08
2023-05-13T08:58:01.622Z,61.35
2023-05-13T08:59:01.676Z,61.10
2023-05-13T09:00:01.697Z,43.06
2023-05-13T09:01:01.795Z,41.88
2023-05-13T09:02:01.747Z,32.58
2023-05-13T09:03:01.880Z,26.37
2023-05-13T09:04:01.794Z,24.58
2023-05-13T09:05:01.895Z,25.80
2023-05-13T09:06:01.871Z,26.51
2023-05-13T09:07:01.882Z,24.28
2023-05-13T09:08:01.958Z,21.74
2023-05-13T09:09:01.973Z,25.06
2023-05-13T09:10:01.976Z,19.91
2023-05-13T09:11:02.004Z,15.51
2023-05-13T09:12:02.053Z,18.61
2023-05-13T09:13:02.140Z,23.20
2023-05-13T09:14:02.122Z,30.55
2023-05-13T09:15:02.195Z,35.35
2023-05-13T09:16:02.212Z,26.99
2023-05-13T09:17:02.197Z,28.65
2023-05-13T09:18:02.315Z,26.60
2023-05-13T09:19:02.313Z,30.92
2023-05-13T09:20:02.277Z,35.03
2023-05-13T09:21:02.308Z,34.56
2023-05-13T09:22:02.316Z,33.78
2023-05-13T09:23:02.379Z,35.50
2023-05-13T09:24:02.434Z,40.74
2023-05-13T09:25:02.401Z,37.10
2023-05-13T09:26:02.443Z,36.32
2023-05-13T09:27:02.418Z,33.31
2023-05-13T09:28:02.504Z,28.47
2023-05-13T09:29:02.482Z,26.32
2023-05-13T09:30:02.536Z,30.11
2023-05-13T09:31:02.579Z,25.25
2023-05-13T09:32:02.619Z,18.70
2023-05-13T09:33:02.651Z,19.87
2023-05-13T09:34:02.622Z,22.32
2023-05-13T09:35:02.698Z,27.61
2023-05-13T09:36:02.709Z,20.47
2023-05-13T09:37:02.753Z,13.76
2023-05-13T09:38:02.748Z,8.61
2023-05-13T09:39:02.815Z,5.21
2023-05-13T09:40:02.856Z,4.06
2023-05-13T09:41:02.892Z,3.32
2023-05-13T09:42:04.840Z,3.70
2023-05-13T09:43:02.948Z,2.86
2023-05-13T09:44:02.975Z,1.95
2023-05-13T09:45:03.009Z,2.22
2023-05-13T09:46:03.050Z,1.20
2023-05-13T09:47:03.098Z,0.94
2023-05-13T09:48:03.127Z,0.64
2023-05-13T09:49:03.095Z,0.88
2023-05-13T09:50:03.131Z,0.99
2023-05-13T09:51:03.193Z,0.99
2023-05-13T09:52:03.175Z,1.00
2023-05-13T09:53:03.222Z,0.66
2023-05-13T09:54:03.238Z,0.47
2023-05-13T09:55:03.283Z,0.47
2023-05-13T09:56:03.291Z,0.50
2023-05-13T09:57:03.345Z,0.56
2023-05-13T09:58:03.357Z,0.55
2023-05-13T09:59:03.393Z,0.39
2023-05-13T10:00:03.425Z,0.38
2023-05-13T10:01:03.487Z,0.34
2023-05-13T10:02:03.505Z,0.34
2023-05-13T10:03:03.580Z,0.48
2023-05-13T10:04:03.668Z,0.34
2023-05-13T10:05:03.613Z,0.34
2023-05-13T10:06:03.786Z,0.34
2023-05-13T10:07:03.685Z,0.34
2023-05-13T10:08:03.730Z,0.34
2023-05-13T10:09:03.732Z,0.60
2023-05-13T10:10:03.800Z,0.50
2023-05-13T10:11:03.814Z,0.65
2023-05-13T10:12:03.828Z,0.59
2023-05-13T10:13:03.866Z,0.52
2023-05-13T10:14:03.869Z,0.55
2023-05-13T10:15:03.871Z,0.53
2023-05-13T10:16:03.935Z,0.40
2023-05-13T10:17:04.025Z,0.35
2023-05-13T10:18:06.672Z,0.47
2023-05-13T10:19:04.075Z,0.57
2023-05-13T10:20:03.994Z,0.77
2023-05-13T10:21:03.966Z,0.56
2023-05-13T10:22:03.950Z,0.64
2023-05-13T10:23:03.947Z,0.53
2023-05-13T10:24:03.934Z,0.62
2023-05-13T10:25:03.984Z,0.87
2023-05-13T10:26:03.939Z,0.72
2023-05-13T10:27:04.450Z,0.50
2023-05-13T10:28:03.944Z,0.53
2023-05-13T10:29:03.957Z,0.60
2023-05-13T10:30:04.178Z,0.58
2023-05-13T10:31:03.943Z,0.49
2023-05-13T10:32:03.937Z,0.52
2023-05-13T10:33:03.950Z,0.44
2023-05-13T10:34:03.884Z,0.34
2023-05-13T10:35:03.908Z,0.34
2023-05-13T10:36:03.908Z,0.34
2023-05-13T10:37:03.914Z,0.38
2023-05-13T10:38:03.941Z,0.41
2023-05-13T10:39:03.867Z,0.51
2023-05-13T10:40:03.866Z,0.49
2023-05-13T10:41:03.865Z,0.38
2023-05-13T10:42:03.842Z,0.44
2023-05-13T10:43:03.846Z,0.51
2023-05-13T10:44:03.851Z,0.58
2023-05-13T10:45:03.865Z,0.53
2023-05-13T10:46:03.854Z,0.72
2023-05-13T10:47:03.811Z,1.06
2023-05-13T10:48:03.875Z,1.15
2023-05-13T10:49:03.769Z,1.14
2023-05-13T10:50:03.793Z,0.86
2023-05-13T10:51:03.793Z,0.94
2023-05-13T10:52:03.763Z,0.65
2023-05-13T10:53:03.790Z,0.55
2023-05-13T10:54:03.766Z,0.58
2023-05-13T10:55:03.799Z,0.70
2023-05-13T10:56:03.782Z,0.94
2023-05-13T10:57:03.734Z,0.86
2023-05-13T10:58:03.774Z,0.63
2023-05-13T10:59:03.744Z,0.51
2023-05-13T11:00:03.751Z,0.57
2023-05-13T11:01:03.697Z,0.86
2023-05-13T11:02:03.883Z,0.59
2023-05-13T11:03:03.759Z,0.49
2023-05-13T11:04:03.828Z,0.46
2023-05-13T11:05:03.687Z,0.53
2023-05-13T11:06:03.694Z,0.50
2023-05-13T11:07:03.687Z,0.60
2023-05-13T11:08:03.670Z,0.71
2023-05-13T11:09:03.665Z,0.57
2023-05-13T11:10:03.703Z,0.51
2023-05-13T11:11:03.648Z,0.46
2023-05-13T11:12:03.650Z,0.54
2023-05-13T11:13:03.658Z,0.52
2023-05-13T11:14:03.633Z,0.63
2023-05-13T11:15:03.636Z,0.81
2023-05-13T11:16:03.665Z,0.87
2023-05-13T11:17:03.686Z,0.82
2023-05-13T11:18:03.734Z,1.00
2023-05-13T11:19:03.792Z,0.94
2023-05-13T11:20:03.788Z,0.80
2023-05-13T11:21:05.228Z,0.85
2023-05-13T11:22:03.818Z,0.70
2023-05-13T11:23:03.862Z,0.57
2023-05-13T11:24:03.873Z,0.55
2023-05-13T11:25:03.900Z,0.49
2023-05-13T11:26:03.918Z,0.52
2023-05-13T11:27:03.948Z,0.59
2023-05-13T11:28:04.010Z,0.56
2023-05-13T11:29:04.051Z,0.50
2023-05-13T11:30:04.073Z,0.52
2023-05-13T11:31:04.107Z,0.64
2023-05-13T11:32:04.165Z,0.84
2023-05-13T11:33:04.199Z,0.88
2023-05-13T11:34:04.189Z,0.73
2023-05-13T11:35:04.208Z,0.80
2023-05-13T11:36:04.248Z,0.82
2023-05-13T11:37:04.255Z,0.66
2023-05-13T11:38:04.310Z,0.62
2023-05-13T11:39:04.353Z,0.81
2023-05-13T11:40:04.377Z,1.11
2023-05-13T11:41:04.377Z,1.24
2023-05-13T11:42:04.433Z,1.39
2023-05-13T11:43:04.471Z,1.16
2023-05-13T11:44:04.476Z,0.75
2023-05-13T11:45:04.520Z,0.68
2023-05-13T11:46:04.656Z,0.63
2023-05-13T11:47:04.566Z,0.64
2023-05-13T11:48:04.670Z,0.56
2023-05-13T11:49:07.136Z,0.48
2023-05-13T11:50:04.660Z,0.49
2023-05-13T11:51:04.649Z,0.47
2023-05-13T11:52:04.656Z,0.51
2023-05-13T11:53:04.636Z,0.39
2023-05-13T11:54:04.638Z,0.36
2023-05-13T11:55:06.932Z,0.45
2023-05-13T11:56:04.677Z,0.45
2023-05-13T11:57:04.675Z,0.48
2023-05-13T11:58:04.731Z,0.56
2023-05-13T11:59:04.724Z,0.81
2023-05-13T12:00:04.867Z,1.15
2023-05-13T12:01:04.772Z,1.12
2023-05-13T12:02:04.912Z,0.87
2023-05-13T12:03:05.027Z,0.90
2023-05-13T12:04:04.873Z,1.06
2023-05-13T12:05:04.993Z,1.23
2023-05-13T12:06:04.974Z,1.23
2023-05-13T12:07:05.007Z,1.42
2023-05-13T12:08:04.994Z,1.46
2023-05-13T12:09:05.084Z,1.09
2023-05-13T12:10:05.164Z,0.75
2023-05-13T12:11:05.166Z,0.79
2023-05-13T12:12:05.175Z,0.65
2023-05-13T12:13:05.197Z,0.61
2023-05-13T12:14:05.229Z,0.55
2023-05-13T12:15:05.297Z,0.45
2023-05-13T12:16:05.315Z,0.46
2023-05-13T12:17:05.291Z,0.52
2023-05-13T12:18:05.386Z,0.55
2023-05-13T12:19:05.392Z,0.49
2023-05-13T12:20:05.963Z,0.54
2023-05-13T12:21:05.391Z,0.52
2023-05-13T12:22:05.774Z,0.63
2023-05-13T12:23:05.420Z,0.58
2023-05-13T12:24:05.462Z,0.48
2023-05-13T12:25:05.460Z,0.51
2023-05-13T12:26:05.592Z,0.53
2023-05-13T12:27:05.574Z,0.52
2023-05-13T12:28:05.571Z,0.60
2023-05-13T12:29:05.646Z,0.51